Hovedside
METAR-TAF:

METAR-TAF

Lufthavner :

Tromsø lufthavn. Langnes

Tromsø, Norge

breddegrad: 69-41N, lengdegrad: 018-55E, høyde over havet: 1 m

Gjeldene værobservasjon

Denne rapporten ble laget for 40 minutter siden, klokken 20:20 UTC
Vind 7 kt fra Vest
Temperatur 6°C
Luftfuktighet 93%
Trykk 1019 hPa
Sikt 10 km eller mer
Spredte skyer i en høyde av 1100 ft
Brutte skyer i en høyde av 1500 ft

METAR: ENTC 232020Z 26007KT 9999 SCT011 BKN015 06/05 Q1019 TEMPO BKN020 RMK WIND 2600FT 25020KT

Tid: 23:00 (21:00 UTC)

Varsel

Varsel gyldig fra 23. klokken 18 UTC til 24. klokken 18 UTC
Vind 8 kt fra Sørvest
Sikt 10 km eller mer
Få skyer i en høyde av 1000 ft
Brutte skyer i en høyde av 3000 ft
Midlertidig
fra 23. klokken 18 UTC til 24. klokken 06 UTC
Vind 10 kt fra Vest
Brutte skyer i en høyde av 1400 ft

TAF: ENTC 2318/2418 22008KT 9999 FEW010 BKN030 TEMPO 2318/2406 28010KT BKN014

Værobservasjoner og værvarsel for over 4000 flyplasser (METAR- og TAF-rapporter).

Tilgjengelige stasjoner er representert av de røde og gule prikkene på kartet.

Hold musepekeren over prikken for å se navnet på stasjonen.

Klikk så for å se værobservasjoner og -varsler.

For å forandre kartet kan du klikke på den grønne knappen med svart kryss for å zoome inn, på den grønne knappen med strek for å zoome ut, eller på de grønne pilene for å se tilstøtende kart.


METAR-TAF: